createdAt,value
2022-10-23T00:02:32.331Z,98481.38
2022-10-23T00:05:33.914Z,98486.13
2022-10-23T00:08:35.498Z,98482.50
2022-10-23T00:11:37.006Z,98483.66
2022-10-23T00:14:40.151Z,98481.78
2022-10-23T00:17:42.075Z,98480.78
2022-10-23T00:20:43.983Z,98478.00
2022-10-23T00:23:48.107Z,98484.13
2022-10-23T00:26:50.579Z,98481.47
2022-10-23T00:29:53.907Z,98479.75
2022-10-23T00:32:55.569Z,98471.72
2022-10-23T00:35:57.211Z,98481.63
2022-10-23T00:38:58.646Z,98475.50
2022-10-23T00:42:00.414Z,98464.66
2022-10-23T00:45:17.637Z,98462.69
2022-10-23T00:48:19.819Z,98468.03
2022-10-23T00:51:21.682Z,98467.34
2022-10-23T00:54:25.785Z,98473.69
2022-10-23T01:00:43.580Z,98461.13
2022-10-23T01:03:47.745Z,98465.28
2022-10-23T01:06:52.941Z,98467.03
2022-10-23T01:10:02.889Z,98457.44
2022-10-23T01:13:08.756Z,98452.25
2022-10-23T01:16:14.500Z,98449.59
2022-10-23T01:19:20.512Z,98444.16
2022-10-23T01:22:33.728Z,98447.84
2022-10-23T01:25:44.322Z,98447.13
2022-10-23T01:28:50.609Z,98442.13
2022-10-23T01:31:55.620Z,98443.16
2022-10-23T01:35:01.889Z,98458.44
2022-10-23T01:38:06.731Z,98453.06
2022-10-23T01:41:12.000Z,98457.50
2022-10-23T01:44:17.823Z,98445.66
2022-10-23T01:50:24.932Z,98448.16
2022-10-23T01:53:27.718Z,98446.28
2022-10-23T01:56:32.802Z,98454.16
2022-10-23T01:59:38.503Z,98444.41
2022-10-23T02:02:42.510Z,98444.72
2022-10-23T02:05:46.356Z,98443.84
2022-10-23T02:08:48.103Z,98440.56
2022-10-23T02:11:53.736Z,98441.56
2022-10-23T02:14:58.064Z,98434.59
2022-10-23T02:18:03.761Z,98424.75
2022-10-23T02:21:11.110Z,98426.72
2022-10-23T02:24:13.919Z,98429.78
2022-10-23T02:27:19.211Z,98419.34
2022-10-23T02:30:25.836Z,98433.56
2022-10-23T02:33:28.655Z,98424.78
2022-10-23T02:36:30.551Z,98425.78
2022-10-23T02:39:32.126Z,98422.25
2022-10-23T02:42:36.489Z,98421.28
2022-10-23T02:45:43.024Z,98403.44
2022-10-23T02:48:48.880Z,98403.34
2022-10-23T02:51:55.323Z,98405.06
2022-10-23T02:55:07.577Z,98402.47
2022-10-23T02:58:10.700Z,98389.13
2022-10-23T03:01:15.891Z,98392.34
2022-10-23T03:04:19.154Z,98389.66
2022-10-23T03:07:20.817Z,98391.72
2022-10-23T03:10:22.594Z,98389.06
2022-10-23T03:13:24.219Z,98382.44
2022-10-23T03:16:27.361Z,98375.47
2022-10-23T03:19:31.542Z,98373.34
2022-10-23T03:22:33.132Z,98374.22
2022-10-23T03:25:34.610Z,98368.09
2022-10-23T03:28:36.329Z,98372.47
2022-10-23T03:31:39.230Z,98365.25
2022-10-23T03:34:41.495Z,98370.50
2022-10-23T03:37:43.206Z,98370.44
2022-10-23T03:40:44.898Z,98373.88
2022-10-23T03:43:46.574Z,98370.28
2022-10-23T03:46:49.559Z,98368.53
2022-10-23T03:49:51.052Z,98366.88
2022-10-23T03:52:52.672Z,98366.88
2022-10-23T03:55:54.233Z,98369.47
2022-10-23T03:58:55.815Z,98367.66
2022-10-23T04:01:58.922Z,98368.47
2022-10-23T04:05:00.432Z,98367.75
2022-10-23T04:08:02.300Z,98373.19
2022-10-23T04:11:03.844Z,98376.09
2022-10-23T04:14:05.493Z,98366.38
2022-10-23T04:17:08.626Z,98364.78
2022-10-23T04:20:10.262Z,98362.28
2022-10-23T04:23:11.892Z,98363.31
2022-10-23T04:26:13.615Z,98353.63
2022-10-23T04:29:15.355Z,98355.44
2022-10-23T04:32:18.270Z,98360.00
2022-10-23T04:35:20.164Z,98356.53
2022-10-23T04:38:21.901Z,98349.41
2022-10-23T04:41:23.575Z,98344.06
2022-10-23T04:44:25.128Z,98338.66
2022-10-23T04:47:30.960Z,98342.16
2022-10-23T04:50:35.948Z,98339.66
2022-10-23T04:53:39.232Z,98338.81
2022-10-23T04:56:40.945Z,98334.25
2022-10-23T04:59:42.605Z,98335.19
2022-10-23T05:02:45.888Z,98334.50
2022-10-23T05:05:47.357Z,98326.63
2022-10-23T05:08:48.942Z,98328.44
2022-10-23T05:11:50.570Z,98330.88
2022-10-23T05:14:52.331Z,98330.56
2022-10-23T05:17:56.608Z,98337.22
2022-10-23T05:20:59.668Z,98337.06
2022-10-23T05:24:02.310Z,98338.81
2022-10-23T05:27:04.177Z,98335.13
2022-10-23T05:30:06.392Z,98331.50
2022-10-23T05:33:09.536Z,98333.13
2022-10-23T05:36:12.548Z,98323.22
2022-10-23T05:39:14.266Z,98321.34
2022-10-23T05:42:15.774Z,98320.47
2022-10-23T05:45:19.802Z,98319.78
2022-10-23T05:48:33.957Z,98313.59
2022-10-23T05:51:37.207Z,98308.34
2022-10-23T05:54:38.805Z,98311.16
2022-10-23T05:57:40.535Z,98311.22
2022-10-23T06:00:42.315Z,98303.38
2022-10-23T06:03:45.493Z,98308.91
2022-10-23T06:06:47.138Z,98308.97
2022-10-23T06:09:48.684Z,98306.41
2022-10-23T06:12:51.172Z,98307.34
2022-10-23T06:15:52.697Z,98306.41
2022-10-23T06:18:55.941Z,98302.69
2022-10-23T06:21:58.580Z,98302.34
2022-10-23T06:25:00.587Z,98299.28
2022-10-23T06:28:02.285Z,98303.38
2022-10-23T06:31:07.142Z,98305.69
2022-10-23T06:34:11.286Z,98302.06
2022-10-23T06:37:13.050Z,98297.59
2022-10-23T06:40:14.694Z,98278.84
2022-10-23T06:43:16.316Z,98276.19
2022-10-23T06:46:19.718Z,98288.41
2022-10-23T06:49:23.023Z,98276.00
2022-10-23T06:52:45.538Z,98274.19
2022-10-23T06:55:47.263Z,98289.00
2022-10-23T06:58:49.633Z,98280.75
2022-10-23T07:01:51.349Z,98282.38
2022-10-23T07:04:54.723Z,98273.34
2022-10-23T07:07:56.268Z,98277.69
2022-10-23T07:10:58.012Z,98278.34
2022-10-23T07:13:59.569Z,98278.19
2022-10-23T07:17:01.141Z,98269.94
2022-10-23T07:20:04.343Z,98275.94
2022-10-23T07:23:05.992Z,98271.38
2022-10-23T07:26:11.242Z,98282.69
2022-10-23T07:29:13.194Z,98279.94
2022-10-23T07:32:14.869Z,98272.59
2022-10-23T07:35:18.125Z,98281.28
2022-10-23T07:38:20.493Z,98277.53
2022-10-23T07:41:24.740Z,98269.31
2022-10-23T07:44:27.756Z,98273.53
2022-10-23T07:47:29.622Z,98276.06
2022-10-23T07:50:32.692Z,98269.56
2022-10-23T07:53:34.924Z,98264.03
2022-10-23T07:56:36.542Z,98271.09
2022-10-23T07:59:38.479Z,98267.31
2022-10-23T08:02:40.151Z,98259.03
2022-10-23T08:05:43.353Z,98270.34
2022-10-23T08:11:51.628Z,98277.78
2022-10-23T08:14:53.452Z,98272.13
2022-10-23T08:17:55.196Z,98261.19
2022-10-23T08:21:02.240Z,98260.03
2022-10-23T08:24:04.881Z,98260.72
2022-10-23T08:27:07.441Z,98261.41
2022-10-23T08:30:09.616Z,98256.81
2022-10-23T08:33:11.385Z,98257.59
2022-10-23T08:36:22.255Z,98255.44
2022-10-23T08:39:23.973Z,98251.31
2022-10-23T08:42:26.417Z,98250.66
2022-10-23T08:45:30.400Z,98251.06
2022-10-23T08:48:35.036Z,98236.47
2022-10-23T08:51:41.011Z,98240.00
2022-10-23T08:54:50.155Z,98237.22
2022-10-23T08:57:55.676Z,98235.88
2022-10-23T09:00:58.026Z,98237.97
2022-10-23T09:03:59.931Z,98236.09
2022-10-23T09:10:18.350Z,98245.53
2022-10-23T09:13:34.799Z,98241.91
2022-10-23T09:16:52.363Z,98255.91
2022-10-23T09:19:55.854Z,98243.91
2022-10-23T09:23:01.898Z,98233.00
2022-10-23T09:26:08.203Z,98231.66
2022-10-23T09:29:17.837Z,98226.88
2022-10-23T09:32:20.295Z,98233.75
2022-10-23T09:35:22.596Z,98222.84
2022-10-23T09:38:30.365Z,98222.63
2022-10-23T09:41:34.971Z,98222.34
2022-10-23T09:44:36.597Z,98222.28
2022-10-23T09:47:38.128Z,98215.75
2022-10-23T09:50:47.283Z,98223.22
2022-10-23T09:53:52.333Z,98219.94
2022-10-23T09:56:55.143Z,98216.00
2022-10-23T09:59:59.154Z,98214.63
2022-10-23T10:03:02.679Z,98207.03
2022-10-23T10:06:04.891Z,98203.94
2022-10-23T10:09:08.895Z,98201.72
2022-10-23T10:12:20.084Z,98213.88
2022-10-23T10:15:25.299Z,98208.06
2022-10-23T10:18:31.864Z,98196.16
2022-10-23T10:21:38.072Z,98199.94
2022-10-23T10:24:46.603Z,98197.94
2022-10-23T10:27:52.769Z,98196.56
2022-10-23T10:31:00.441Z,98204.06
2022-10-23T10:34:06.461Z,98191.09
2022-10-23T10:37:17.745Z,98190.88
2022-10-23T10:40:26.020Z,98183.06
2022-10-23T10:43:34.581Z,98183.78
2022-10-23T10:46:38.418Z,98178.84
2022-10-23T10:49:43.281Z,98179.28
2022-10-23T10:52:50.512Z,98175.28
2022-10-23T10:55:54.664Z,98172.56
2022-10-23T10:58:58.259Z,98159.00
2022-10-23T11:02:02.447Z,98157.28
2022-10-23T11:05:12.004Z,98151.72
2022-10-23T11:08:15.495Z,98144.84
2022-10-23T11:11:21.529Z,98137.75
2022-10-23T11:14:33.050Z,98131.50
2022-10-23T11:17:37.285Z,98120.31
2022-10-23T11:21:04.577Z,98123.28
2022-10-23T11:24:29.461Z,98103.69
2022-10-23T11:27:52.071Z,98095.16
2022-10-23T11:31:09.522Z,98089.44
2022-10-23T11:34:32.063Z,98089.66
2022-10-23T11:37:33.820Z,98085.81
2022-10-23T11:40:35.910Z,98081.03
2022-10-23T11:43:48.120Z,98090.41
2022-10-23T11:46:59.921Z,98087.72
2022-10-23T11:50:19.367Z,98079.78
2022-10-23T11:53:26.212Z,98078.81
2022-10-23T11:56:28.225Z,98065.34
2022-10-23T11:59:31.768Z,98064.84
2022-10-23T12:02:38.216Z,98062.91
2022-10-23T12:05:42.245Z,98061.81
2022-10-23T12:08:44.516Z,98060.72
2022-10-23T12:11:48.056Z,98047.81
2022-10-23T12:14:50.317Z,98042.44
2022-10-23T12:17:54.369Z,98042.44
2022-10-23T12:20:58.042Z,98036.19
2022-10-23T12:24:18.274Z,98044.28
2022-10-23T12:27:26.159Z,98035.44
2022-10-23T12:30:34.273Z,98033.63
2022-10-23T12:33:43.458Z,98019.44
2022-10-23T12:36:51.953Z,98010.19
2022-10-23T12:39:55.147Z,98005.53
2022-10-23T12:42:58.316Z,97990.88
2022-10-23T12:46:02.652Z,98004.69
2022-10-23T12:49:13.333Z,97995.88
2022-10-23T12:52:15.690Z,97979.88
2022-10-23T12:55:17.869Z,97975.69
2022-10-23T12:58:20.384Z,97977.63
2022-10-23T13:01:24.283Z,97966.16
2022-10-23T13:04:29.558Z,97958.09
2022-10-23T13:07:33.956Z,97956.25
2022-10-23T13:10:36.267Z,97963.47
2022-10-23T13:13:40.033Z,97956.25
2022-10-23T13:16:42.004Z,97958.81
2022-10-23T13:19:45.061Z,97958.69
2022-10-23T13:22:47.986Z,97949.53
2022-10-23T13:25:53.664Z,97938.91
2022-10-23T13:28:55.622Z,97949.53
2022-10-23T13:32:10.162Z,97947.63
2022-10-23T13:35:22.025Z,97947.50
2022-10-23T13:38:31.019Z,97950.19
2022-10-23T13:41:39.302Z,97941.34
2022-10-23T13:44:41.738Z,97934.19
2022-10-23T13:47:43.738Z,97927.19
2022-10-23T13:50:47.028Z,97926.19
2022-10-23T13:53:49.232Z,97922.44
2022-10-23T13:56:51.418Z,97914.47
2022-10-23T13:59:53.237Z,97903.97
2022-10-23T14:05:58.033Z,97890.66
2022-10-23T14:08:59.987Z,97877.94
2022-10-23T14:12:01.888Z,97882.13
2022-10-23T14:15:03.506Z,97867.72
2022-10-23T14:18:08.211Z,97870.03
2022-10-23T14:21:12.728Z,97869.91
2022-10-23T14:24:14.928Z,97858.94
2022-10-23T14:27:19.098Z,97859.03
2022-10-23T14:30:20.867Z,97863.44
2022-10-23T14:33:22.520Z,97860.63
2022-10-23T14:36:30.884Z,97863.53
2022-10-23T14:39:40.413Z,97850.34
2022-10-23T14:42:42.380Z,97846.06
2022-10-23T14:45:44.172Z,97836.91
2022-10-23T14:48:47.195Z,97838.28
2022-10-23T14:51:52.366Z,97823.00
2022-10-23T14:54:53.927Z,97821.16
2022-10-23T14:57:58.412Z,97811.38
2022-10-23T15:01:00.901Z,97810.53
2022-10-23T15:04:02.957Z,97801.72
2022-10-23T15:07:06.534Z,97800.84
2022-10-23T15:10:11.605Z,97784.97
2022-10-23T15:13:13.388Z,97776.31
2022-10-23T15:16:15.392Z,97791.72
2022-10-23T15:19:18.546Z,97790.22
2022-10-23T15:22:23.586Z,97784.97
2022-10-23T15:25:25.247Z,97783.63
2022-10-23T15:28:27.387Z,97779.47
2022-10-23T15:31:42.386Z,97768.84
2022-10-23T15:34:44.542Z,97749.31
2022-10-23T15:37:47.482Z,97749.63
2022-10-23T15:40:49.346Z,97729.13
2022-10-23T15:43:52.817Z,97728.53
2022-10-23T15:46:57.013Z,97721.69
2022-10-23T15:49:58.618Z,97727.78
2022-10-23T15:53:01.590Z,97731.59
2022-10-23T15:56:03.314Z,97729.75
2022-10-23T15:59:04.988Z,97710.09
2022-10-23T16:02:08.131Z,97713.72
2022-10-23T16:05:10.234Z,97716.53
2022-10-23T16:08:13.650Z,97726.44
2022-10-23T16:11:17.773Z,97727.28
2022-10-23T16:14:19.332Z,97725.81
2022-10-23T16:17:20.984Z,97723.00
2022-10-23T16:20:22.661Z,97708.00
2022-10-23T16:23:28.590Z,97692.88
2022-10-23T16:26:30.113Z,97692.34
2022-10-23T16:29:31.700Z,97676.88
2022-10-23T16:32:36.334Z,97672.22
2022-10-23T16:35:38.300Z,97690.16
2022-10-23T16:38:41.332Z,97680.25
2022-10-23T16:41:42.963Z,97678.63
2022-10-23T16:44:44.448Z,97678.56
2022-10-23T16:47:46.274Z,97685.63
2022-10-23T16:50:48.014Z,97681.84
2022-10-23T16:53:51.449Z,97676.22
2022-10-23T16:56:53.134Z,97678.44
2022-10-23T16:59:54.859Z,97682.72
2022-10-23T17:02:56.547Z,97678.06
2022-10-23T17:06:02.338Z,97690.31
2022-10-23T17:09:06.769Z,97702.63
2022-10-23T17:12:08.353Z,97698.09
2022-10-23T17:15:10.712Z,97699.22
2022-10-23T17:18:12.236Z,97710.09
2022-10-23T17:22:01.004Z,97715.09
2022-10-23T17:25:02.647Z,97727.91
2022-10-23T17:28:04.386Z,97740.56
2022-10-23T17:31:11.544Z,97754.97
2022-10-23T17:34:15.167Z,97751.94
2022-10-23T17:37:18.380Z,97751.53
2022-10-23T17:40:25.134Z,97773.63
2022-10-23T17:43:27.032Z,97790.00
2022-10-23T17:46:32.016Z,97804.03
2022-10-23T17:49:33.774Z,97797.66
2022-10-23T17:52:36.992Z,97792.97
2022-10-23T17:55:38.995Z,97780.25
2022-10-23T17:58:40.638Z,97774.84
2022-10-23T18:01:48.221Z,97785.03
2022-10-23T18:04:50.563Z,97792.59
2022-10-23T18:07:54.266Z,97794.53
2022-10-23T18:10:56.058Z,97802.06
2022-10-23T18:14:01.260Z,97816.44
2022-10-23T18:17:03.791Z,97821.31
2022-10-23T18:20:05.927Z,97831.28
2022-10-23T18:23:09.223Z,97851.16
2022-10-23T18:26:16.054Z,97852.16
2022-10-23T18:29:18.038Z,97854.00
2022-10-23T18:32:19.747Z,97843.84
2022-10-23T18:35:21.414Z,97840.63
2022-10-23T18:38:24.759Z,97844.38
2022-10-23T18:41:26.832Z,97854.13
2022-10-23T18:44:29.312Z,97853.38
2022-10-23T18:47:31.830Z,97871.53
2022-10-23T18:50:35.933Z,97860.16
2022-10-23T18:53:38.935Z,97872.59
2022-10-23T18:56:40.914Z,97857.56
2022-10-23T18:59:42.392Z,97849.63
2022-10-23T19:02:45.987Z,97863.16
2022-10-23T19:05:51.383Z,97849.97
2022-10-23T19:08:54.994Z,97843.00
2022-10-23T19:11:56.647Z,97845.88
2022-10-23T19:15:00.253Z,97840.66
2022-10-23T19:18:02.225Z,97836.13
2022-10-23T19:21:06.003Z,97831.63
2022-10-23T19:24:12.334Z,97821.88
2022-10-23T19:27:14.099Z,97793.25
2022-10-23T19:30:19.317Z,97785.22
2022-10-23T19:33:23.473Z,97808.38
2022-10-23T19:36:25.104Z,97812.75
2022-10-23T19:39:28.339Z,97801.28
2022-10-23T19:42:29.933Z,97783.41
2022-10-23T19:48:33.393Z,97722.41
2022-10-23T19:51:34.880Z,97716.94
2022-10-23T19:54:40.280Z,97717.78
2022-10-23T19:57:42.310Z,97725.59
2022-10-23T20:00:44.207Z,97715.63
2022-10-23T20:03:45.791Z,97684.31
2022-10-23T20:06:47.577Z,97655.06
2022-10-23T20:09:50.549Z,97610.59
2022-10-23T20:12:56.845Z,97617.03
2022-10-23T20:16:09.809Z,97613.59
2022-10-23T20:19:12.257Z,97630.97
2022-10-23T20:22:14.134Z,97647.28
2022-10-23T20:25:17.578Z,97649.19
2022-10-23T20:28:19.181Z,97649.19
2022-10-23T20:31:21.587Z,97638.59
2022-10-23T20:34:23.369Z,97642.88
2022-10-23T20:37:25.160Z,97647.47
2022-10-23T20:40:28.329Z,97658.19
2022-10-23T20:43:32.254Z,97661.09
2022-10-23T20:46:36.460Z,97665.72
2022-10-23T20:49:38.369Z,97665.97
2022-10-23T20:52:40.139Z,97674.84
2022-10-23T20:55:43.656Z,97683.00
2022-10-23T20:58:45.255Z,97677.66
2022-10-23T21:01:51.259Z,97682.19
2022-10-23T21:04:53.690Z,97685.41
2022-10-23T21:07:55.831Z,97681.69
2022-10-23T21:10:59.150Z,97688.75
2022-10-23T21:14:00.932Z,97706.00
2022-10-23T21:17:03.155Z,97691.66
2022-10-23T21:20:05.438Z,97681.88
2022-10-23T21:23:07.351Z,97687.47
2022-10-23T21:26:10.755Z,97692.59
2022-10-23T21:29:18.589Z,97685.63
2022-10-23T21:32:21.536Z,97686.50
2022-10-23T21:35:25.323Z,97684.97
2022-10-23T21:38:29.566Z,97686.69
2022-10-23T21:41:34.408Z,97679.44
2022-10-23T21:44:36.454Z,97668.47
2022-10-23T21:47:38.295Z,97668.03
2022-10-23T21:50:40.018Z,97677.06
2022-10-23T21:53:41.806Z,97679.72
2022-10-23T21:56:46.683Z,97688.53
2022-10-23T21:59:48.369Z,97693.78
2022-10-23T22:02:50.203Z,97700.00
2022-10-23T22:05:52.067Z,97702.34
2022-10-23T22:08:54.306Z,97695.88
2022-10-23T22:11:57.406Z,97710.50
2022-10-23T22:15:01.393Z,97717.56
2022-10-23T22:18:03.036Z,97720.97
2022-10-23T22:21:05.663Z,97728.03
2022-10-23T22:24:07.809Z,97726.56
2022-10-23T22:27:10.891Z,97736.19
2022-10-23T22:30:13.055Z,97737.41
2022-10-23T22:33:14.703Z,97735.03
2022-10-23T22:36:16.614Z,97734.72
2022-10-23T22:39:18.734Z,97726.38
2022-10-23T22:42:21.759Z,97730.88
2022-10-23T22:45:23.516Z,97732.94
2022-10-23T22:48:25.167Z,97726.59
2022-10-23T22:51:27.834Z,97725.53
2022-10-23T22:54:31.434Z,97730.03
2022-10-23T22:57:34.773Z,97726.38
2022-10-23T23:00:41.354Z,97731.50
2022-10-23T23:03:45.781Z,97735.16
2022-10-23T23:06:47.496Z,97729.78
2022-10-23T23:09:49.467Z,97709.34
2022-10-23T23:12:53.590Z,97715.44
2022-10-23T23:15:55.950Z,97703.44
2022-10-23T23:18:59.199Z,97719.94
2022-10-23T23:22:01.222Z,97726.25
2022-10-23T23:25:03.080Z,97719.84
2022-10-23T23:28:06.809Z,97728.03
2022-10-23T23:31:09.469Z,97714.56
2022-10-23T23:34:11.235Z,97717.31
2022-10-23T23:37:13.410Z,97703.31
2022-10-23T23:40:15.277Z,97710.59
2022-10-23T23:43:18.536Z,97712.66
2022-10-23T23:46:20.119Z,97707.31
2022-10-23T23:49:22.040Z,97703.53
2022-10-23T23:52:23.632Z,97706.34
2022-10-23T23:55:25.327Z,97698.78
2022-10-23T23:58:30.125Z,97709.50
